createdAt,value
2023-08-02T00:01:35.587Z,30.98
2023-08-02T00:04:10.958Z,30.80
2023-08-02T00:06:41.643Z,32.40
2023-08-02T00:09:11.274Z,28.88
2023-08-02T00:11:43.060Z,30.77
2023-08-02T00:14:12.483Z,29.10
2023-08-02T00:16:47.287Z,29.45
2023-08-02T00:19:17.743Z,30.85
2023-08-02T00:21:47.351Z,28.88
2023-08-02T00:24:16.392Z,29.30
2023-08-02T00:26:46.134Z,30.33
2023-08-02T00:29:15.816Z,29.27
2023-08-02T00:31:45.247Z,30.00
2023-08-02T00:34:14.902Z,31.27
2023-08-02T00:36:44.952Z,31.92
2023-08-02T00:39:15.304Z,29.73
2023-08-02T00:42:06.405Z,29.95
2023-08-02T00:44:36.088Z,29.83
2023-08-02T00:47:05.491Z,31.25
2023-08-02T00:49:35.506Z,33.08
2023-08-02T00:52:04.880Z,31.67
2023-08-02T00:54:34.622Z,33.05
2023-08-02T00:57:04.492Z,30.23
2023-08-02T00:59:33.844Z,31.13
2023-08-02T01:02:03.611Z,31.27
2023-08-02T01:04:32.782Z,30.73
2023-08-02T01:07:13.965Z,30.83
2023-08-02T01:09:50.268Z,30.80
2023-08-02T01:12:22.281Z,30.42
2023-08-02T01:15:00.161Z,31.20
2023-08-02T01:17:30.229Z,31.27
2023-08-02T01:20:09.393Z,32.33
2023-08-02T01:22:40.094Z,31.88
2023-08-02T01:25:11.063Z,31.95
2023-08-02T01:27:50.905Z,34.60
2023-08-02T01:30:22.986Z,31.98
2023-08-02T01:32:52.903Z,31.95
2023-08-02T01:35:23.515Z,30.48
2023-08-02T01:37:53.185Z,29.73
2023-08-02T01:40:22.263Z,30.27
2023-08-02T01:42:51.866Z,30.00
2023-08-02T01:45:21.090Z,30.48
2023-08-02T01:47:50.931Z,30.77
2023-08-02T01:50:21.000Z,28.67
2023-08-02T01:52:51.287Z,29.13
2023-08-02T01:55:21.430Z,28.15
2023-08-02T01:57:50.697Z,27.67
2023-08-02T02:00:20.178Z,25.25
2023-08-02T02:02:49.759Z,24.48
2023-08-02T02:05:20.928Z,25.20
2023-08-02T02:07:50.849Z,21.45
2023-08-02T02:10:20.243Z,21.33
2023-08-02T02:12:49.311Z,21.52
2023-08-02T02:15:18.440Z,20.70
2023-08-02T02:17:47.617Z,19.25
2023-08-02T02:20:16.790Z,19.85
2023-08-02T02:22:45.969Z,19.10
2023-08-02T02:25:17.064Z,18.83
2023-08-02T02:27:46.126Z,20.38
2023-08-02T02:30:15.965Z,18.83
2023-08-02T02:32:45.725Z,18.55
2023-08-02T02:35:14.939Z,19.00
2023-08-02T02:37:45.388Z,18.40
2023-08-02T02:40:15.609Z,18.45
2023-08-02T02:42:45.001Z,17.63
2023-08-02T02:45:16.301Z,15.57
2023-08-02T02:47:46.112Z,16.70
2023-08-02T02:50:15.498Z,15.07
2023-08-02T02:52:45.044Z,15.48
2023-08-02T02:55:14.132Z,15.65
2023-08-02T02:57:43.371Z,14.07
2023-08-02T03:00:13.118Z,14.13
2023-08-02T03:02:42.466Z,13.60
2023-08-02T03:05:11.719Z,13.65
2023-08-02T03:07:41.015Z,13.27
2023-08-02T03:10:10.503Z,13.70
2023-08-02T03:12:39.781Z,13.60
2023-08-02T03:15:09.836Z,12.57
2023-08-02T03:17:39.162Z,13.15
2023-08-02T03:20:09.256Z,13.00
2023-08-02T03:22:38.610Z,12.45
2023-08-02T03:25:07.908Z,11.50
2023-08-02T03:27:37.237Z,10.80
2023-08-02T03:30:06.833Z,12.90
2023-08-02T03:32:36.468Z,12.45
2023-08-02T03:35:06.402Z,12.02
2023-08-02T03:37:38.748Z,11.18
2023-08-02T03:40:09.082Z,11.10
2023-08-02T03:42:38.468Z,10.52
2023-08-02T03:45:08.045Z,9.77
2023-08-02T03:47:38.235Z,10.07
2023-08-02T03:50:07.793Z,10.27
2023-08-02T03:52:37.252Z,9.50
2023-08-02T03:55:06.893Z,10.18
2023-08-02T03:57:36.129Z,7.97
2023-08-02T04:00:06.308Z,8.70
2023-08-02T04:02:43.785Z,10.07
2023-08-02T04:05:13.551Z,9.63
2023-08-02T04:07:42.594Z,9.52
2023-08-02T04:10:12.414Z,10.35
2023-08-02T04:12:41.989Z,9.65
2023-08-02T04:15:12.336Z,8.07
2023-08-02T04:17:42.771Z,6.97
2023-08-02T04:20:12.765Z,6.70
2023-08-02T04:22:41.823Z,6.85
2023-08-02T04:25:11.474Z,6.65
2023-08-02T04:27:40.568Z,6.82
2023-08-02T04:30:10.852Z,5.65
2023-08-02T04:32:40.378Z,5.32
2023-08-02T04:35:09.741Z,5.95
2023-08-02T04:37:39.123Z,5.30
2023-08-02T04:40:08.732Z,4.90
2023-08-02T04:42:38.148Z,4.70
2023-08-02T04:45:07.900Z,5.00
2023-08-02T04:47:38.052Z,5.25
2023-08-02T04:50:08.881Z,5.63
2023-08-02T04:52:39.826Z,5.05
2023-08-02T04:55:10.199Z,5.28
2023-08-02T04:57:40.729Z,5.40
2023-08-02T05:00:10.667Z,6.22
2023-08-02T05:02:39.812Z,6.18
2023-08-02T05:05:09.536Z,5.85
2023-08-02T05:07:41.609Z,5.70
2023-08-02T05:10:11.967Z,5.72
2023-08-02T05:12:42.495Z,6.30
2023-08-02T05:15:13.059Z,6.22
2023-08-02T05:17:42.776Z,6.40
2023-08-02T05:20:12.557Z,6.47
2023-08-02T05:22:42.274Z,6.10
2023-08-02T05:25:12.003Z,6.15
2023-08-02T05:27:41.425Z,5.30
2023-08-02T05:30:11.119Z,6.40
2023-08-02T05:32:40.396Z,7.00
2023-08-02T05:35:09.982Z,6.65
2023-08-02T05:37:39.485Z,5.80
2023-08-02T05:40:09.681Z,6.40
2023-08-02T05:42:39.132Z,6.47
2023-08-02T05:45:09.292Z,6.07
2023-08-02T05:47:39.908Z,5.45
2023-08-02T05:50:11.141Z,6.05
2023-08-02T05:52:40.528Z,8.23
2023-08-02T05:55:13.043Z,5.40
2023-08-02T05:57:43.734Z,6.53
2023-08-02T06:00:13.634Z,5.00
2023-08-02T06:02:43.359Z,5.63
2023-08-02T06:05:12.920Z,5.50
2023-08-02T06:07:42.720Z,5.85
2023-08-02T06:10:12.501Z,5.28
2023-08-02T06:12:41.892Z,6.47
2023-08-02T06:15:11.754Z,6.75
2023-08-02T06:17:41.265Z,5.63
2023-08-02T06:20:11.860Z,5.60
2023-08-02T06:22:41.704Z,5.97
2023-08-02T06:25:11.604Z,5.80
2023-08-02T06:27:40.911Z,6.53
2023-08-02T06:30:10.908Z,5.82
2023-08-02T06:32:41.165Z,6.25
2023-08-02T06:35:12.663Z,6.22
2023-08-02T06:37:42.357Z,6.80
2023-08-02T06:40:12.861Z,6.60
2023-08-02T06:42:43.141Z,5.65
2023-08-02T06:45:12.826Z,6.07
2023-08-02T06:47:42.176Z,6.05
2023-08-02T06:50:12.084Z,6.32
2023-08-02T06:52:41.638Z,6.00
2023-08-02T06:55:11.637Z,5.63
2023-08-02T06:57:41.177Z,5.85
2023-08-02T07:00:11.266Z,6.88
2023-08-02T07:02:40.732Z,5.93
2023-08-02T07:05:11.122Z,6.13
2023-08-02T07:07:40.765Z,5.13
2023-08-02T07:10:10.420Z,5.50
2023-08-02T07:12:40.079Z,6.22
2023-08-02T07:15:09.445Z,7.32
2023-08-02T07:17:39.131Z,7.18
2023-08-02T07:20:10.324Z,5.93
2023-08-02T07:22:40.250Z,6.32
2023-08-02T07:25:09.899Z,6.93
2023-08-02T07:27:40.554Z,6.65
2023-08-02T07:30:10.780Z,5.95
2023-08-02T07:32:40.529Z,5.63
2023-08-02T07:35:10.149Z,5.90
2023-08-02T07:37:39.494Z,5.95
2023-08-02T07:40:09.460Z,5.55
2023-08-02T07:42:39.160Z,6.65
2023-08-02T07:45:13.613Z,5.85
2023-08-02T07:47:43.184Z,5.88
2023-08-02T07:50:13.375Z,5.50
2023-08-02T07:52:43.227Z,6.38
2023-08-02T07:55:13.570Z,5.55
2023-08-02T07:57:42.813Z,7.07
2023-08-02T08:00:13.608Z,7.00
2023-08-02T08:02:43.190Z,5.75
2023-08-02T08:05:12.521Z,5.97
2023-08-02T08:07:42.152Z,6.43
2023-08-02T08:10:11.785Z,6.03
2023-08-02T08:12:41.331Z,6.80
2023-08-02T08:15:10.824Z,9.52
2023-08-02T08:17:40.951Z,8.38
2023-08-02T08:20:13.219Z,9.32
2023-08-02T08:22:42.656Z,9.73
2023-08-02T08:25:17.092Z,11.02
2023-08-02T08:27:47.245Z,12.40
2023-08-02T08:30:16.415Z,12.00
2023-08-02T08:32:45.762Z,12.38
2023-08-02T08:35:15.161Z,14.63
2023-08-02T08:37:45.414Z,15.07
2023-08-02T08:40:22.921Z,17.15
2023-08-02T08:42:54.628Z,16.13
2023-08-02T08:45:28.261Z,19.00
2023-08-02T08:47:57.682Z,19.02
2023-08-02T08:50:29.942Z,18.17
2023-08-02T08:53:06.985Z,16.73
2023-08-02T08:55:38.333Z,15.50
2023-08-02T08:58:11.229Z,19.73
2023-08-02T09:00:41.828Z,21.92
2023-08-02T09:03:15.127Z,20.85
2023-08-02T09:05:45.418Z,18.60
2023-08-02T09:08:15.361Z,19.88
2023-08-02T09:10:45.795Z,18.67
2023-08-02T09:13:25.654Z,18.08
2023-08-02T09:16:21.195Z,17.45
2023-08-02T09:18:51.646Z,18.05
2023-08-02T09:21:24.722Z,16.90
2023-08-02T09:24:03.063Z,15.82
2023-08-02T09:26:32.488Z,15.25
2023-08-02T09:29:02.026Z,15.07
2023-08-02T09:31:33.756Z,14.60
2023-08-02T09:34:04.302Z,15.38
2023-08-02T09:36:36.562Z,14.18
2023-08-02T09:39:13.601Z,13.20
2023-08-02T09:41:58.769Z,12.40
2023-08-02T09:44:31.631Z,13.80
2023-08-02T09:47:14.622Z,12.35
2023-08-02T09:49:44.095Z,11.63
2023-08-02T09:52:27.935Z,10.80
2023-08-02T09:54:57.420Z,10.45
2023-08-02T09:57:31.620Z,11.18
2023-08-02T10:00:12.175Z,9.73
2023-08-02T10:02:45.161Z,10.25
2023-08-02T10:05:16.263Z,9.00
2023-08-02T10:07:53.542Z,10.32
2023-08-02T10:10:28.239Z,10.77
2023-08-02T10:13:10.887Z,10.77
2023-08-02T10:15:42.677Z,10.57
2023-08-02T10:18:14.420Z,11.53
2023-08-02T10:20:44.614Z,9.77
2023-08-02T10:23:14.156Z,10.23
2023-08-02T10:25:45.166Z,10.85
2023-08-02T10:28:15.792Z,10.35
2023-08-02T10:30:45.390Z,10.02
2023-08-02T10:33:21.017Z,10.90
2023-08-02T10:35:56.836Z,9.02
2023-08-02T10:38:48.642Z,8.57
2023-08-02T10:41:23.514Z,8.95
2023-08-02T10:43:56.276Z,7.68
2023-08-02T10:46:34.703Z,7.90
2023-08-02T10:49:26.832Z,7.70
2023-08-02T10:51:58.711Z,7.60
2023-08-02T10:54:29.091Z,7.30
2023-08-02T10:57:07.124Z,6.85
2023-08-02T10:59:36.915Z,7.60
2023-08-02T11:02:14.165Z,6.68
2023-08-02T11:04:49.475Z,7.18
2023-08-02T11:07:21.561Z,7.32
2023-08-02T11:09:56.945Z,6.30
2023-08-02T11:12:28.607Z,6.78
2023-08-02T11:14:58.538Z,6.53
2023-08-02T11:22:38.728Z,5.97
2023-08-02T11:25:09.040Z,5.97
2023-08-02T11:32:49.033Z,6.18
2023-08-02T11:35:20.683Z,6.18
2023-08-02T11:37:50.808Z,5.65
2023-08-02T11:40:26.828Z,5.40
2023-08-02T11:42:59.161Z,5.55
2023-08-02T11:45:35.087Z,5.88
2023-08-02T11:48:10.714Z,4.50
2023-08-02T11:50:41.868Z,4.70
2023-08-02T11:53:12.203Z,5.93
2023-08-02T11:55:47.313Z,4.93
2023-08-02T11:58:20.209Z,4.60
2023-08-02T12:00:50.442Z,4.88
2023-08-02T12:03:22.164Z,4.80
2023-08-02T12:06:01.845Z,4.65
2023-08-02T12:08:32.482Z,5.18
2023-08-02T12:11:02.398Z,5.72
2023-08-02T12:13:32.105Z,5.53
2023-08-02T12:16:08.674Z,5.05
2023-08-02T12:19:03.890Z,4.95
2023-08-02T12:21:33.720Z,4.68
2023-08-02T12:24:15.248Z,5.40
2023-08-02T12:26:45.931Z,4.50
2023-08-02T12:29:27.203Z,5.35
2023-08-02T12:31:57.048Z,6.10
2023-08-02T12:34:29.981Z,5.57
2023-08-02T12:37:01.943Z,5.70
2023-08-02T12:39:31.519Z,6.60
2023-08-02T12:42:00.625Z,5.40
2023-08-02T12:44:30.185Z,5.55
2023-08-02T12:46:59.438Z,6.57
2023-08-02T12:49:32.651Z,6.43
2023-08-02T12:52:02.255Z,5.75
2023-08-02T12:54:31.360Z,5.85
2023-08-02T12:57:00.883Z,6.10
2023-08-02T12:59:30.379Z,5.65
2023-08-02T13:02:00.602Z,5.88
2023-08-02T13:04:30.595Z,5.32
2023-08-02T13:07:00.322Z,5.75
2023-08-02T13:09:30.164Z,5.72
2023-08-02T13:12:07.702Z,5.40
2023-08-02T13:14:38.581Z,6.38
2023-08-02T13:17:07.975Z,5.70
2023-08-02T13:19:37.655Z,5.82
2023-08-02T13:22:07.601Z,5.07
2023-08-02T13:24:37.258Z,6.95
2023-08-02T13:27:07.632Z,6.57
2023-08-02T13:29:38.028Z,6.88
2023-08-02T13:32:07.673Z,6.82
2023-08-02T13:34:36.896Z,7.65
2023-08-02T13:37:07.919Z,7.28
2023-08-02T13:39:38.026Z,7.03
2023-08-02T13:42:07.964Z,7.82
2023-08-02T13:44:38.390Z,7.43
2023-08-02T13:47:08.749Z,7.47
2023-08-02T13:49:38.177Z,7.28
2023-08-02T13:52:07.777Z,6.78
2023-08-02T13:54:37.152Z,7.18
2023-08-02T13:57:06.715Z,6.68
2023-08-02T13:59:36.526Z,6.53
2023-08-02T14:02:06.558Z,5.38
2023-08-02T14:04:46.852Z,5.13
2023-08-02T14:07:17.120Z,5.88
2023-08-02T14:09:46.553Z,5.00
2023-08-02T14:12:16.936Z,4.50
2023-08-02T14:14:46.521Z,5.22
2023-08-02T14:17:15.839Z,5.53
2023-08-02T14:19:45.655Z,6.93
2023-08-02T14:22:14.964Z,7.95
2023-08-02T14:24:44.640Z,6.15
2023-08-02T14:27:13.937Z,4.82
2023-08-02T14:29:43.648Z,3.55
2023-08-02T14:32:13.039Z,4.05
2023-08-02T14:34:44.851Z,3.75
2023-08-02T14:37:15.602Z,4.18
2023-08-02T14:39:46.420Z,4.55
2023-08-02T14:42:17.705Z,4.40
2023-08-02T14:44:47.600Z,3.40
2023-08-02T14:47:17.118Z,3.08
2023-08-02T14:49:56.278Z,3.72
2023-08-02T14:52:26.884Z,5.60
2023-08-02T14:54:57.239Z,5.15
2023-08-02T14:57:27.037Z,4.40
2023-08-02T14:59:56.959Z,2.83
2023-08-02T15:02:26.186Z,2.75
2023-08-02T15:04:56.588Z,2.50
2023-08-02T15:07:27.105Z,2.50
2023-08-02T15:09:56.525Z,2.13
2023-08-02T15:12:25.765Z,2.70
2023-08-02T15:14:55.298Z,3.03
2023-08-02T15:17:24.526Z,3.40
2023-08-02T15:19:54.892Z,3.20
2023-08-02T15:22:24.298Z,3.80
2023-08-02T15:24:53.463Z,3.60
2023-08-02T15:27:22.961Z,3.97
2023-08-02T15:29:52.403Z,3.30
2023-08-02T15:32:21.714Z,3.97
2023-08-02T15:34:51.196Z,3.97
2023-08-02T15:37:20.618Z,3.80
2023-08-02T15:39:51.892Z,3.50
2023-08-02T15:42:25.989Z,3.90
2023-08-02T15:44:57.151Z,4.22
2023-08-02T15:47:26.736Z,3.63
2023-08-02T15:49:56.179Z,4.43
2023-08-02T15:52:26.483Z,4.00
2023-08-02T15:54:56.151Z,4.05
2023-08-02T15:57:26.250Z,3.70
2023-08-02T15:59:55.736Z,3.45
2023-08-02T16:02:30.319Z,3.22
2023-08-02T16:05:00.284Z,3.60
2023-08-02T16:07:29.642Z,3.42
2023-08-02T16:10:01.093Z,3.00
2023-08-02T16:12:30.499Z,3.53
2023-08-02T16:15:01.576Z,4.47
2023-08-02T16:17:31.198Z,4.82
2023-08-02T16:20:00.581Z,6.55
2023-08-02T16:22:33.553Z,7.97
2023-08-02T16:25:03.542Z,8.05
2023-08-02T16:27:41.977Z,8.70
2023-08-02T16:30:11.990Z,10.02
2023-08-02T16:32:44.328Z,9.18
2023-08-02T16:35:14.052Z,10.32
2023-08-02T16:37:43.598Z,10.93
2023-08-02T16:40:13.590Z,10.13
2023-08-02T16:42:44.123Z,9.13
2023-08-02T16:45:14.049Z,9.80
2023-08-02T16:47:49.535Z,9.32
2023-08-02T16:50:25.202Z,8.57
2023-08-02T16:52:59.212Z,9.07
2023-08-02T16:55:37.546Z,8.60
2023-08-02T16:58:07.439Z,8.07
2023-08-02T17:00:37.788Z,7.15
2023-08-02T17:03:07.718Z,8.90
2023-08-02T17:05:38.421Z,6.80
2023-08-02T17:08:08.904Z,7.30
2023-08-02T17:10:38.279Z,6.95
2023-08-02T17:13:08.262Z,6.55
2023-08-02T17:15:38.150Z,6.70
2023-08-02T17:18:07.439Z,6.40
2023-08-02T17:20:37.287Z,6.10
2023-08-02T17:23:07.031Z,6.22
2023-08-02T17:25:37.031Z,7.05
2023-08-02T17:28:06.703Z,6.05
2023-08-02T17:30:36.150Z,5.60
2023-08-02T17:33:06.227Z,5.57
2023-08-02T17:35:39.414Z,5.97
2023-08-02T17:38:11.203Z,6.70
2023-08-02T17:40:41.665Z,7.25
2023-08-02T17:43:13.057Z,6.70
2023-08-02T17:45:42.657Z,6.57
2023-08-02T17:48:15.364Z,6.10
2023-08-02T17:50:54.826Z,6.97
2023-08-02T17:53:25.754Z,6.43
2023-08-02T17:56:03.392Z,7.32
2023-08-02T17:58:36.076Z,7.15
2023-08-02T18:01:19.793Z,7.07
2023-08-02T18:03:50.520Z,7.03
2023-08-02T18:06:26.850Z,7.78
2023-08-02T18:08:57.884Z,7.55
2023-08-02T18:11:27.842Z,7.43
2023-08-02T18:13:58.459Z,7.40
2023-08-02T18:16:29.733Z,8.30
2023-08-02T18:18:59.549Z,9.18
2023-08-02T18:21:28.656Z,7.60
2023-08-02T18:23:58.610Z,9.98
2023-08-02T18:26:27.923Z,10.60
2023-08-02T18:28:57.197Z,9.23
2023-08-02T18:31:26.826Z,10.35
2023-08-02T18:33:56.850Z,11.35
2023-08-02T18:36:26.946Z,12.02
2023-08-02T18:38:57.408Z,12.48
2023-08-02T18:41:27.156Z,11.18
2023-08-02T18:43:57.642Z,11.52
2023-08-02T18:46:27.025Z,12.70
2023-08-02T18:48:57.174Z,13.48
2023-08-02T18:51:28.457Z,13.43
2023-08-02T18:53:59.181Z,12.88
2023-08-02T18:56:28.923Z,13.13
2023-08-02T18:58:58.947Z,15.45
2023-08-02T19:01:29.995Z,12.60
2023-08-02T19:04:00.149Z,12.98
2023-08-02T19:06:30.901Z,14.13
2023-08-02T19:09:01.426Z,13.63
2023-08-02T19:11:34.093Z,13.80
2023-08-02T19:14:03.742Z,15.05
2023-08-02T19:16:33.433Z,15.05
2023-08-02T19:19:03.349Z,15.32
2023-08-02T19:21:33.410Z,14.02
2023-08-02T19:24:03.042Z,15.50
2023-08-02T19:26:32.628Z,16.20
2023-08-02T19:29:02.117Z,16.48
2023-08-02T19:31:32.449Z,15.35
2023-08-02T19:34:04.511Z,16.45
2023-08-02T19:36:34.777Z,15.60
2023-08-02T19:39:04.585Z,17.77
2023-08-02T19:41:34.055Z,17.13
2023-08-02T19:44:03.514Z,16.33
2023-08-02T19:46:33.122Z,16.35
2023-08-02T19:49:04.530Z,15.52
2023-08-02T19:51:34.645Z,20.38
2023-08-02T19:54:04.681Z,18.15
2023-08-02T19:56:35.018Z,18.20
2023-08-02T19:59:04.594Z,18.65
2023-08-02T20:01:33.818Z,17.58
2023-08-02T20:04:04.423Z,17.88
2023-08-02T20:06:35.938Z,19.70
2023-08-02T20:09:06.997Z,16.85
2023-08-02T20:11:36.424Z,17.88
2023-08-02T20:14:06.245Z,19.63
2023-08-02T20:16:38.188Z,18.75
2023-08-02T20:19:15.271Z,18.08
2023-08-02T20:21:48.568Z,19.23
2023-08-02T20:26:52.452Z,18.48
2023-08-02T20:29:26.804Z,18.35
2023-08-02T20:31:56.472Z,17.60
2023-08-02T20:34:27.472Z,18.05
2023-08-02T20:36:56.942Z,18.15
2023-08-02T20:39:29.502Z,17.63
2023-08-02T20:41:59.083Z,18.67
2023-08-02T20:44:28.332Z,18.02
2023-08-02T20:46:58.339Z,18.38
2023-08-02T20:49:27.625Z,16.10
2023-08-02T20:51:56.923Z,18.15
2023-08-02T20:54:26.556Z,17.75
2023-08-02T20:56:55.972Z,18.60
2023-08-02T20:59:28.431Z,18.25
2023-08-02T21:01:58.226Z,19.52
2023-08-02T21:04:27.552Z,18.90
2023-08-02T21:07:09.487Z,18.30
2023-08-02T21:09:40.715Z,18.83
2023-08-02T21:12:10.398Z,18.70
2023-08-02T21:14:41.378Z,19.40
2023-08-02T21:17:17.862Z,19.58
2023-08-02T21:19:48.938Z,18.13
2023-08-02T21:22:19.369Z,17.70
2023-08-02T21:24:48.858Z,17.98
2023-08-02T21:27:18.681Z,17.70
2023-08-02T21:29:49.086Z,17.38
2023-08-02T21:32:21.252Z,15.57
2023-08-02T21:34:55.852Z,15.05
2023-08-02T21:37:25.304Z,14.43
2023-08-02T21:39:54.638Z,15.00
2023-08-02T21:42:28.721Z,14.10
2023-08-02T21:45:00.237Z,13.20
2023-08-02T21:47:30.188Z,12.88
2023-08-02T21:49:59.571Z,12.27
2023-08-02T21:52:28.801Z,12.93
2023-08-02T21:54:58.259Z,12.07
2023-08-02T21:57:27.396Z,13.75
2023-08-02T21:59:59.092Z,11.23
2023-08-02T22:02:41.524Z,12.67
2023-08-02T22:05:17.654Z,12.18
2023-08-02T22:07:47.190Z,11.57
2023-08-02T22:10:20.260Z,11.00
2023-08-02T22:12:50.232Z,11.43
2023-08-02T22:15:20.981Z,11.50
2023-08-02T22:17:52.882Z,12.07
2023-08-02T22:20:22.604Z,10.73
2023-08-02T22:22:51.929Z,10.90
2023-08-02T22:25:21.908Z,11.65
2023-08-02T22:27:51.617Z,11.48
2023-08-02T22:30:20.782Z,11.40
2023-08-02T22:32:50.532Z,11.63
2023-08-02T22:35:19.864Z,11.20
2023-08-02T22:37:50.257Z,12.73
2023-08-02T22:40:19.797Z,13.23
2023-08-02T22:42:48.892Z,12.95
2023-08-02T22:45:18.393Z,14.70
2023-08-02T22:47:59.187Z,12.45
2023-08-02T22:53:12.013Z,12.95
2023-08-02T22:55:41.489Z,12.68
2023-08-02T22:58:11.523Z,12.75
2023-08-02T23:00:40.665Z,15.93
2023-08-02T23:03:39.294Z,13.90
2023-08-02T23:06:12.434Z,15.68
2023-08-02T23:08:42.377Z,16.35
2023-08-02T23:11:18.956Z,14.57
2023-08-02T23:13:51.454Z,14.48
2023-08-02T23:16:26.903Z,15.98
2023-08-02T23:18:58.746Z,15.90
2023-08-02T23:21:33.355Z,17.77
2023-08-02T23:24:05.142Z,17.02
2023-08-02T23:26:34.606Z,17.17
2023-08-02T23:29:05.557Z,18.35
2023-08-02T23:31:35.482Z,20.20
2023-08-02T23:34:04.679Z,19.33
2023-08-02T23:36:34.222Z,19.75
2023-08-02T23:39:03.459Z,20.08
2023-08-02T23:41:33.227Z,19.38
2023-08-02T23:44:02.454Z,20.38
2023-08-02T23:46:31.827Z,19.05
2023-08-02T23:49:01.725Z,19.38
2023-08-02T23:51:31.118Z,19.33
2023-08-02T23:54:02.579Z,21.38
2023-08-02T23:56:32.339Z,21.98
2023-08-02T23:59:01.934Z,20.27
